Pagrindinis puslapis
METAR-TAF:

METAR-TAF

Oro uostai :

Ahvazas, Iranas

platuma: 31-20N, ilguma: 048-40E, Aukštis: 20 m

Dabartinis oras

Ataskaita buvo paskelbta 33 minutes, ne 13:30 UTC
Vėjas 8 kt iš Šiaurės/Šiaurės Vakarų
Temperatūra 42°C
Drėgmė 16%
Slėgis 1004 hPa
Matomumas 10 km arba daugiau
nėra debesų žemiau 1500 m ir nėra kamuolinių lietaus debesų

METAR: OIAW 191330Z 34008KT CAVOK 42/11 Q1004

Laikas: 18:33 (14:03 UTC)

Prognozė

Ataskaita buvo paskelbta 3 valandos ir 3 minutes, ne 11:00 UTC
Prognozė galioja nuo 19 metu 12 UTC su 20 metu 18 UTC
Vėjas 8 kt iš Šiaurės/Šiaurės Rytų
Matomumas 10 km arba daugiau
nėra debesų žemiau 1500 m ir nėra kamuolinių lietaus debesų
Laikinai
nuo 19 metu 12 UTC su 19 metu 15 UTC
Vėjas 18 kt iš Šiaurės Vakarų su gūsio iki 24 kt
Matomumas: 4000 m
Smėlis
Tapsmas
nuo 19 metu 24 UTC su 20 metu 02 UTC
Vėjas 5 kt iš Šiaurės Vakarų

TAF: OIAW 191100Z 1912/2018 03008KT CAVOK TEMPO 1912/1915 32018G24KT 4000 SA NSC BECMG 1924/2002 32005KT

Orai ataskaitas ir orų prognozės (METAR, TAF).

turimą stotys yra geltonos ir raudonos taškus žemėlapyje.

Perkelti pele per norėdami pamatyti stoties vardą.

Tada spustelėkite, norėdami matyti oro stebėjimo ir prognozės.

Norėdami pakeisti žemėlapį: spustelėkite ant žalios mygtukų su juodo kryžiaus žemyn,; žalią mygtuką su brūkšneliu, jei norite nutolinti; arba žalių rodyklių gretimoms žemėlapius.


METAR-TAF: